Atlantic, Maine
Current Conditions -  °F | °C
As of 8:35 AM on Sunday 21 Dec 2014 (Local Time) from KBHB Reporting Station
Overcast Overcast  
Wind Chill: 28°   Ceiling: 3900
Heat Index: 28°   Visibility: 10mi
Dew Point: 28°   Wind: 3mph
Humidity: 100%   Direction: 340°NNW
Pressure: 30.36"   Gusts: NA
Location:  44.1716°N, 68.4245°W
Report Text: KBHB 211335Z AUTO 34003KT 10SM OVC039 M02/M02 A3036 RMK AO1
Loading
Personal Weather Stations






























Interactive Weather Map New forecast layout! Learn more

10-Day Weather Forecast

Advertisements
Track Severe Weather on mobile